15  °C
Temperature
59  °F
Temperature
52  °F
 Dewpoint
11  °C
  Dewpoint
77  %
 Humidity
  Temperature
7  mph
Wind Speed
6  kts
Wind Speed
11  km/h
Wind Speed
3.1  m/s
Wind Speed
330°
North North
West

Wind Speed
Partly Cloudy
Conditions
Pressure 1017.92 (hPa) - 30.06 (inHG)
Visibility 6.2 (mi) - 10.0 (km)

Sky Conditions
EGOS
Location RAF Shawbury 24 mi (38.62 km)
Metar :EGOS 241850Z AUTO 33006KT 9999 FEW032/// SCT044/// BKN070/// 15/11 Q1018
Fri 24th May 18:50 pm

Nearest Airport
https://www.checkwx.com/weather/EGOS
  Metar Aviation API Data Provided by https://www.checkwx.com/ Original CSS/SVG/PHP scripts by weather34.com © 2015-2019